Allakaket, Alaska
Current Conditions -  °F | °C
As of 7:53 AM on Thursday 30 Oct 2014 (Local Time) from PABT Reporting Station
Light Snow Light Snow  
Wind Chill: -13°   Ceiling: 5000
Heat Index: -13°   Visibility: 10mi
Dew Point: -15°   Wind: 0mph
Humidity: 87%   Direction: NA
Pressure: 29.82"   Gusts: NA
Location:  66.57°N, 152.65°W
Report Text: PABT 301553Z 00000KT 10SM -SN OVC050 M13/M15 A2982 RMK AO2 SLP118 T11331150
Loading
Personal Weather Stations






























Interactive Weather Map
Tropical Storm Tracking
New forecast layout! Learn more

10-Day Weather Forecast

Advertisements
Track Severe Weather on mobile